sensor_id;sensor_type;location;lat;lon;timestamp;P1;durP1;ratioP1;P2;durP2;ratioP2
38972;SDS011;25333;50.762;4.470;2023-11-19T00:02:45;3.37;;;1.47;;
38972;SDS011;25333;50.762;4.470;2023-11-19T00:05:51;3.80;;;1.27;;
38972;SDS011;25333;50.762;4.470;2023-11-19T00:08:43;4.38;;;1.45;;
38972;SDS011;25333;50.762;4.470;2023-11-19T00:11:31;4.75;;;1.48;;
38972;SDS011;25333;50.762;4.470;2023-11-19T00:17:37;3.38;;;1.40;;
38972;SDS011;25333;50.762;4.470;2023-11-19T00:20:06;7.15;;;2.17;;
38972;SDS011;25333;50.762;4.470;2023-11-19T00:22:55;5.68;;;1.92;;
38972;SDS011;25333;50.762;4.470;2023-11-19T00:28:26;7.18;;;1.88;;
38972;SDS011;25333;50.762;4.470;2023-11-19T00:31:07;5.20;;;2.20;;
38972;SDS011;25333;50.762;4.470;2023-11-19T00:33:58;5.97;;;1.58;;
38972;SDS011;25333;50.762;4.470;2023-11-19T00:36:42;6.00;;;2.08;;
38972;SDS011;25333;50.762;4.470;2023-11-19T00:39:40;6.20;;;1.90;;
38972;SDS011;25333;50.762;4.470;2023-11-19T01:20:21;8.88;;;2.08;;
38972;SDS011;25333;50.762;4.470;2023-11-19T06:56:42;12.43;;;3.05;;
38972;SDS011;25333;50.762;4.470;2023-11-19T07:04:50;16.17;;;3.78;;
38972;SDS011;25333;50.762;4.470;2023-11-19T07:07:57;13.68;;;2.80;;
38972;SDS011;25333;50.762;4.470;2023-11-19T07:10:28;19.67;;;4.00;;
38972;SDS011;25333;50.762;4.470;2023-11-19T07:19:11;15.82;;;4.82;;
38972;SDS011;25333;50.762;4.470;2023-11-19T07:22:06;12.57;;;3.63;;
38972;SDS011;25333;50.762;4.470;2023-11-19T07:30:13;15.90;;;3.97;;
38972;SDS011;25333;50.762;4.470;2023-11-19T07:36:47;12.80;;;4.10;;
38972;SDS011;25333;50.762;4.470;2023-11-19T07:39:38;17.13;;;3.83;;
38972;SDS011;25333;50.762;4.470;2023-11-19T07:42:19;17.88;;;5.10;;
38972;SDS011;25333;50.762;4.470;2023-11-19T07:44:45;14.35;;;3.45;;
38972;SDS011;25333;50.762;4.470;2023-11-19T07:47:11;16.77;;;4.27;;
38972;SDS011;25333;50.762;4.470;2023-11-19T07:49:37;15.27;;;4.00;;
38972;SDS011;25333;50.762;4.470;2023-11-19T07:52:04;10.73;;;3.75;;
38972;SDS011;25333;50.762;4.470;2023-11-19T07:54:30;17.23;;;4.00;;
38972;SDS011;25333;50.762;4.470;2023-11-19T07:56:55;9.70;;;3.60;;
38972;SDS011;25333;50.762;4.470;2023-11-19T07:59:21;12.88;;;2.72;;
38972;SDS011;25333;50.762;4.470;2023-11-19T08:01:47;9.57;;;3.60;;
38972;SDS011;25333;50.762;4.470;2023-11-19T08:04:13;13.97;;;3.33;;
38972;SDS011;25333;50.762;4.470;2023-11-19T08:06:39;17.15;;;3.90;;
38972;SDS011;25333;50.762;4.470;2023-11-19T08:09:05;16.95;;;3.42;;
38972;SDS011;25333;50.762;4.470;2023-11-19T08:11:50;18.08;;;3.55;;
38972;SDS011;25333;50.762;4.470;2023-11-19T08:14:16;15.77;;;3.17;;
38972;SDS011;25333;50.762;4.470;2023-11-19T08:16:41;17.42;;;4.32;;
38972;SDS011;25333;50.762;4.470;2023-11-19T08:19:07;13.87;;;3.07;;
38972;SDS011;25333;50.762;4.470;2023-11-19T08:21:33;11.95;;;4.32;;
38972;SDS011;25333;50.762;4.470;2023-11-19T08:23:59;15.20;;;4.50;;
38972;SDS011;25333;50.762;4.470;2023-11-19T08:26:25;16.07;;;3.23;;
38972;SDS011;25333;50.762;4.470;2023-11-19T08:28:50;14.80;;;3.72;;
38972;SDS011;25333;50.762;4.470;2023-11-19T08:31:17;10.65;;;3.47;;
38972;SDS011;25333;50.762;4.470;2023-11-19T08:33:42;11.30;;;3.30;;
38972;SDS011;25333;50.762;4.470;2023-11-19T08:36:16;12.60;;;3.50;;
38972;SDS011;25333;50.762;4.470;2023-11-19T08:38:42;15.20;;;4.32;;
38972;SDS011;25333;50.762;4.470;2023-11-19T08:41:13;10.83;;;3.20;;
38972;SDS011;25333;50.762;4.470;2023-11-19T08:43:38;14.07;;;3.03;;
38972;SDS011;25333;50.762;4.470;2023-11-19T08:46:09;16.13;;;3.97;;
38972;SDS011;25333;50.762;4.470;2023-11-19T08:48:39;12.38;;;3.63;;
38972;SDS011;25333;50.762;4.470;2023-11-19T08:51:05;14.13;;;4.00;;
38972;SDS011;25333;50.762;4.470;2023-11-19T08:53:33;12.68;;;2.63;;
38972;SDS011;25333;50.762;4.470;2023-11-19T08:55:59;13.52;;;4.07;;
38972;SDS011;25333;50.762;4.470;2023-11-19T08:58:25;15.93;;;4.80;;
38972;SDS011;25333;50.762;4.470;2023-11-19T09:00:54;15.05;;;3.13;;
38972;SDS011;25333;50.762;4.470;2023-11-19T09:03:30;11.90;;;3.42;;
38972;SDS011;25333;50.762;4.470;2023-11-19T09:06:06;12.37;;;3.33;;
38972;SDS011;25333;50.762;4.470;2023-11-19T09:08:35;17.08;;;3.75;;
38972;SDS011;25333;50.762;4.470;2023-11-19T09:11:30;13.82;;;4.03;;
38972;SDS011;25333;50.762;4.470;2023-11-19T09:13:56;15.90;;;3.80;;
38972;SDS011;25333;50.762;4.470;2023-11-19T09:16:22;13.80;;;3.42;;
38972;SDS011;25333;50.762;4.470;2023-11-19T09:18:48;14.82;;;2.83;;
38972;SDS011;25333;50.762;4.470;2023-11-19T09:21:14;8.70;;;3.03;;
38972;SDS011;25333;50.762;4.470;2023-11-19T09:23:50;17.98;;;3.80;;
38972;SDS011;25333;50.762;4.470;2023-11-19T09:26:16;15.27;;;5.03;;
38972;SDS011;25333;50.762;4.470;2023-11-19T09:28:44;11.23;;;2.25;;
38972;SDS011;25333;50.762;4.470;2023-11-19T09:31:16;11.25;;;2.95;;
38972;SDS011;25333;50.762;4.470;2023-11-19T09:33:47;14.60;;;3.13;;
38972;SDS011;25333;50.762;4.470;2023-11-19T09:36:13;12.70;;;2.83;;
38972;SDS011;25333;50.762;4.470;2023-11-19T09:38:39;11.82;;;4.13;;
38972;SDS011;25333;50.762;4.470;2023-11-19T09:41:07;13.82;;;3.38;;
38972;SDS011;25333;50.762;4.470;2023-11-19T09:43:37;13.27;;;3.53;;
38972;SDS011;25333;50.762;4.470;2023-11-19T09:46:10;11.60;;;2.42;;
38972;SDS011;25333;50.762;4.470;2023-11-19T09:48:43;10.98;;;2.42;;
38972;SDS011;25333;50.762;4.470;2023-11-19T09:51:10;8.48;;;2.28;;
38972;SDS011;25333;50.762;4.470;2023-11-19T09:53:39;12.65;;;3.03;;
38972;SDS011;25333;50.762;4.470;2023-11-19T09:56:05;15.75;;;3.85;;
38972;SDS011;25333;50.762;4.470;2023-11-19T09:58:33;12.23;;;2.38;;
38972;SDS011;25333;50.762;4.470;2023-11-19T10:00:59;7.40;;;3.20;;
38972;SDS011;25333;50.762;4.470;2023-11-19T10:03:32;16.40;;;2.65;;
38972;SDS011;25333;50.762;4.470;2023-11-19T10:06:03;18.70;;;3.22;;
38972;SDS011;25333;50.762;4.470;2023-11-19T10:08:29;15.20;;;2.90;;
38972;SDS011;25333;50.762;4.470;2023-11-19T10:10:55;17.95;;;3.08;;
38972;SDS011;25333;50.762;4.470;2023-11-19T10:13:25;10.97;;;2.83;;
38972;SDS011;25333;50.762;4.470;2023-11-19T10:15:52;11.98;;;3.80;;
38972;SDS011;25333;50.762;4.470;2023-11-19T10:18:25;10.75;;;2.85;;
38972;SDS011;25333;50.762;4.470;2023-11-19T10:20:51;10.80;;;2.67;;
38972;SDS011;25333;50.762;4.470;2023-11-19T10:23:17;16.08;;;3.22;;
38972;SDS011;25333;50.762;4.470;2023-11-19T10:25:43;13.65;;;2.72;;
38972;SDS011;25333;50.762;4.470;2023-11-19T10:28:09;14.02;;;3.33;;
38972;SDS011;25333;50.762;4.470;2023-11-19T10:30:34;14.77;;;2.97;;
38972;SDS011;25333;50.762;4.470;2023-11-19T10:33:07;17.65;;;2.80;;
38972;SDS011;25333;50.762;4.470;2023-11-19T10:36:15;13.20;;;2.58;;
38972;SDS011;25333;50.762;4.470;2023-11-19T10:38:34;11.80;;;2.63;;
38972;SDS011;25333;50.762;4.470;2023-11-19T10:41:00;9.00;;;2.53;;
38972;SDS011;25333;50.762;4.470;2023-11-19T10:43:26;13.40;;;2.23;;
38972;SDS011;25333;50.762;4.470;2023-11-19T10:45:52;10.65;;;3.13;;
38972;SDS011;25333;50.762;4.470;2023-11-19T10:48:18;8.45;;;2.63;;
38972;SDS011;25333;50.762;4.470;2023-11-19T10:50:45;8.55;;;1.77;;
38972;SDS011;25333;50.762;4.470;2023-11-19T10:53:14;8.50;;;2.03;;
38972;SDS011;25333;50.762;4.470;2023-11-19T10:55:40;9.33;;;2.33;;
38972;SDS011;25333;50.762;4.470;2023-11-19T10:58:09;10.27;;;2.78;;
38972;SDS011;25333;50.762;4.470;2023-11-19T11:03:11;11.45;;;3.10;;
38972;SDS011;25333;50.762;4.470;2023-11-19T11:05:41;9.37;;;2.40;;
38972;SDS011;25333;50.762;4.470;2023-11-19T11:08:12;12.77;;;3.10;;
38972;SDS011;25333;50.762;4.470;2023-11-19T11:10:45;10.63;;;2.65;;
38972;SDS011;25333;50.762;4.470;2023-11-19T11:13:35;12.27;;;3.38;;
38972;SDS011;25333;50.762;4.470;2023-11-19T11:16:09;10.50;;;3.67;;
38972;SDS011;25333;50.762;4.470;2023-11-19T11:18:37;16.35;;;3.00;;
38972;SDS011;25333;50.762;4.470;2023-11-19T11:24:03;19.80;;;3.42;;
38972;SDS011;25333;50.762;4.470;2023-11-19T11:32:24;13.20;;;3.00;;
38972;SDS011;25333;50.762;4.470;2023-11-19T11:38:11;12.10;;;3.55;;
38972;SDS011;25333;50.762;4.470;2023-11-19T11:40:40;13.98;;;3.78;;
38972;SDS011;25333;50.762;4.470;2023-11-19T11:43:39;12.70;;;2.92;;
38972;SDS011;25333;50.762;4.470;2023-11-19T11:49:02;9.55;;;2.50;;
38972;SDS011;25333;50.762;4.470;2023-11-19T11:59:36;24.52;;;4.07;;
38972;SDS011;25333;50.762;4.470;2023-11-19T12:02:03;13.02;;;3.33;;
38972;SDS011;25333;50.762;4.470;2023-11-19T12:04:28;13.20;;;2.83;;
38972;SDS011;25333;50.762;4.470;2023-11-19T12:07:04;8.23;;;2.25;;
38972;SDS011;25333;50.762;4.470;2023-11-19T12:09:42;9.73;;;2.35;;
38972;SDS011;25333;50.762;4.470;2023-11-19T12:15:03;9.20;;;2.92;;
38972;SDS011;25333;50.762;4.470;2023-11-19T12:19:59;8.27;;;2.38;;
38972;SDS011;25333;50.762;4.470;2023-11-19T12:22:26;11.00;;;1.90;;
38972;SDS011;25333;50.762;4.470;2023-11-19T12:24:55;11.73;;;2.10;;
38972;SDS011;25333;50.762;4.470;2023-11-19T12:27:21;11.35;;;2.60;;
38972;SDS011;25333;50.762;4.470;2023-11-19T12:29:47;9.15;;;2.25;;
38972;SDS011;25333;50.762;4.470;2023-11-19T12:32:13;9.63;;;2.03;;
38972;SDS011;25333;50.762;4.470;2023-11-19T12:34:39;9.68;;;3.10;;
38972;SDS011;25333;50.762;4.470;2023-11-19T12:37:05;11.18;;;2.85;;
38972;SDS011;25333;50.762;4.470;2023-11-19T12:39:31;13.03;;;2.53;;
38972;SDS011;25333;50.762;4.470;2023-11-19T12:41:57;11.32;;;2.70;;
38972;SDS011;25333;50.762;4.470;2023-11-19T12:44:27;8.10;;;2.08;;
38972;SDS011;25333;50.762;4.470;2023-11-19T12:47:06;11.73;;;3.17;;
38972;SDS011;25333;50.762;4.470;2023-11-19T12:49:34;17.03;;;3.93;;
38972;SDS011;25333;50.762;4.470;2023-11-19T12:52:00;13.27;;;2.88;;
38972;SDS011;25333;50.762;4.470;2023-11-19T12:54:33;15.43;;;2.67;;
38972;SDS011;25333;50.762;4.470;2023-11-19T12:57:01;11.10;;;2.80;;
38972;SDS011;25333;50.762;4.470;2023-11-19T12:59:28;12.60;;;3.83;;
38972;SDS011;25333;50.762;4.470;2023-11-19T13:01:56;13.20;;;3.60;;
38972;SDS011;25333;50.762;4.470;2023-11-19T13:04:22;9.93;;;3.30;;
38972;SDS011;25333;50.762;4.470;2023-11-19T13:06:52;19.45;;;3.72;;
38972;SDS011;25333;50.762;4.470;2023-11-19T13:09:21;14.83;;;3.77;;
38972;SDS011;25333;50.762;4.470;2023-11-19T13:11:47;15.10;;;3.20;;
38972;SDS011;25333;50.762;4.470;2023-11-19T13:14:13;12.80;;;3.42;;
38972;SDS011;25333;50.762;4.470;2023-11-19T13:16:38;12.77;;;3.03;;
38972;SDS011;25333;50.762;4.470;2023-11-19T13:19:04;13.27;;;2.55;;
38972;SDS011;25333;50.762;4.470;2023-11-19T13:21:30;11.75;;;2.45;;
38972;SDS011;25333;50.762;4.470;2023-11-19T13:23:56;10.10;;;2.35;;
38972;SDS011;25333;50.762;4.470;2023-11-19T13:26:22;7.80;;;2.33;;
38972;SDS011;25333;50.762;4.470;2023-11-19T13:28:48;12.85;;;3.88;;
38972;SDS011;25333;50.762;4.470;2023-11-19T13:31:14;7.63;;;3.20;;
38972;SDS011;25333;50.762;4.470;2023-11-19T13:33:40;15.73;;;3.25;;
38972;SDS011;25333;50.762;4.470;2023-11-19T13:36:06;17.30;;;3.90;;
38972;SDS011;25333;50.762;4.470;2023-11-19T13:38:35;11.38;;;2.88;;
38972;SDS011;25333;50.762;4.470;2023-11-19T13:41:01;18.80;;;3.17;;
38972;SDS011;25333;50.762;4.470;2023-11-19T13:43:29;14.45;;;3.88;;
38972;SDS011;25333;50.762;4.470;2023-11-19T13:45:55;15.57;;;4.93;;
38972;SDS011;25333;50.762;4.470;2023-11-19T13:48:21;18.83;;;3.50;;
38972;SDS011;25333;50.762;4.470;2023-11-19T13:50:47;13.10;;;2.50;;
38972;SDS011;25333;50.762;4.470;2023-11-19T13:53:13;11.97;;;3.63;;
38972;SDS011;25333;50.762;4.470;2023-11-19T13:55:38;14.50;;;2.93;;
38972;SDS011;25333;50.762;4.470;2023-11-19T13:58:04;10.70;;;3.85;;
38972;SDS011;25333;50.762;4.470;2023-11-19T14:00:30;15.13;;;4.10;;
38972;SDS011;25333;50.762;4.470;2023-11-19T14:02:55;19.13;;;3.88;;
38972;SDS011;25333;50.762;4.470;2023-11-19T14:05:21;14.40;;;3.05;;
38972;SDS011;25333;50.762;4.470;2023-11-19T14:07:48;14.98;;;3.05;;
38972;SDS011;25333;50.762;4.470;2023-11-19T14:10:15;14.52;;;4.00;;
38972;SDS011;25333;50.762;4.470;2023-11-19T14:12:41;11.60;;;4.10;;
38972;SDS011;25333;50.762;4.470;2023-11-19T14:15:07;12.63;;;4.13;;
38972;SDS011;25333;50.762;4.470;2023-11-19T14:17:42;14.13;;;3.05;;
38972;SDS011;25333;50.762;4.470;2023-11-19T14:20:08;10.73;;;3.05;;
38972;SDS011;25333;50.762;4.470;2023-11-19T14:22:43;16.55;;;4.68;;
38972;SDS011;25333;50.762;4.470;2023-11-19T14:25:13;15.35;;;4.05;;
38972;SDS011;25333;50.762;4.470;2023-11-19T14:27:40;14.60;;;3.47;;
38972;SDS011;25333;50.762;4.470;2023-11-19T14:30:08;16.15;;;3.30;;
38972;SDS011;25333;50.762;4.470;2023-11-19T14:32:39;13.60;;;3.30;;
38972;SDS011;25333;50.762;4.470;2023-11-19T14:35:10;8.70;;;2.72;;
38972;SDS011;25333;50.762;4.470;2023-11-19T14:37:43;9.02;;;2.97;;
38972;SDS011;25333;50.762;4.470;2023-11-19T14:40:09;14.13;;;3.35;;
38972;SDS011;25333;50.762;4.470;2023-11-19T14:42:36;11.48;;;3.17;;
38972;SDS011;25333;50.762;4.470;2023-11-19T14:45:04;13.82;;;3.17;;
38972;SDS011;25333;50.762;4.470;2023-11-19T14:47:30;13.70;;;2.92;;
38972;SDS011;25333;50.762;4.470;2023-11-19T14:49:55;13.83;;;4.17;;
38972;SDS011;25333;50.762;4.470;2023-11-19T14:52:21;17.70;;;3.67;;
38972;SDS011;25333;50.762;4.470;2023-11-19T14:54:47;9.68;;;2.90;;
38972;SDS011;25333;50.762;4.470;2023-11-19T14:57:12;13.77;;;4.00;;
38972;SDS011;25333;50.762;4.470;2023-11-19T14:59:39;17.58;;;4.13;;
38972;SDS011;25333;50.762;4.470;2023-11-19T15:02:04;20.10;;;4.68;;
38972;SDS011;25333;50.762;4.470;2023-11-19T15:04:30;20.37;;;4.70;;
38972;SDS011;25333;50.762;4.470;2023-11-19T15:06:57;12.93;;;3.35;;
38972;SDS011;25333;50.762;4.470;2023-11-19T15:09:23;15.70;;;3.67;;
38972;SDS011;25333;50.762;4.470;2023-11-19T15:11:49;14.38;;;3.33;;
38972;SDS011;25333;50.762;4.470;2023-11-19T15:14:15;13.30;;;3.88;;
38972;SDS011;25333;50.762;4.470;2023-11-19T15:16:43;11.98;;;3.72;;
38972;SDS011;25333;50.762;4.470;2023-11-19T15:19:10;14.13;;;2.85;;
38972;SDS011;25333;50.762;4.470;2023-11-19T15:21:37;10.68;;;3.13;;
38972;SDS011;25333;50.762;4.470;2023-11-19T15:24:03;15.95;;;4.13;;
38972;SDS011;25333;50.762;4.470;2023-11-19T15:26:32;9.77;;;2.83;;
38972;SDS011;25333;50.762;4.470;2023-11-19T15:29:00;15.68;;;4.10;;
38972;SDS011;25333;50.762;4.470;2023-11-19T15:31:29;8.75;;;2.67;;
38972;SDS011;25333;50.762;4.470;2023-11-19T15:33:55;11.87;;;3.93;;
38972;SDS011;25333;50.762;4.470;2023-11-19T15:36:21;13.75;;;3.45;;
38972;SDS011;25333;50.762;4.470;2023-11-19T15:38:47;13.35;;;4.18;;
38972;SDS011;25333;50.762;4.470;2023-11-19T15:41:14;19.37;;;5.47;;
38972;SDS011;25333;50.762;4.470;2023-11-19T15:43:41;10.90;;;3.38;;
38972;SDS011;25333;50.762;4.470;2023-11-19T15:46:07;13.20;;;3.08;;
38972;SDS011;25333;50.762;4.470;2023-11-19T15:48:34;11.63;;;2.72;;
38972;SDS011;25333;50.762;4.470;2023-11-19T15:51:00;16.85;;;4.05;;
38972;SDS011;25333;50.762;4.470;2023-11-19T15:53:27;7.03;;;2.03;;
38972;SDS011;25333;50.762;4.470;2023-11-19T15:55:53;9.23;;;2.35;;
38972;SDS011;25333;50.762;4.470;2023-11-19T15:58:19;12.00;;;2.90;;
38972;SDS011;25333;50.762;4.470;2023-11-19T16:00:47;14.23;;;3.08;;
38972;SDS011;25333;50.762;4.470;2023-11-19T16:03:13;9.95;;;3.25;;
38972;SDS011;25333;50.762;4.470;2023-11-19T16:05:39;13.47;;;3.03;;
38972;SDS011;25333;50.762;4.470;2023-11-19T16:08:05;11.43;;;3.22;;
38972;SDS011;25333;50.762;4.470;2023-11-19T16:10:30;12.75;;;3.15;;
38972;SDS011;25333;50.762;4.470;2023-11-19T16:12:56;11.93;;;3.10;;
38972;SDS011;25333;50.762;4.470;2023-11-19T16:15:22;9.32;;;2.30;;
38972;SDS011;25333;50.762;4.470;2023-11-19T16:17:48;10.73;;;3.67;;
38972;SDS011;25333;50.762;4.470;2023-11-19T16:20:13;9.63;;;2.33;;
38972;SDS011;25333;50.762;4.470;2023-11-19T16:22:39;11.63;;;3.75;;
38972;SDS011;25333;50.762;4.470;2023-11-19T16:25:08;13.60;;;3.45;;
38972;SDS011;25333;50.762;4.470;2023-11-19T16:27:34;11.00;;;4.13;;
38972;SDS011;25333;50.762;4.470;2023-11-19T16:30:00;12.07;;;2.97;;
38972;SDS011;25333;50.762;4.470;2023-11-19T16:32:27;14.93;;;3.85;;
38972;SDS011;25333;50.762;4.470;2023-11-19T16:34:53;12.82;;;3.72;;
38972;SDS011;25333;50.762;4.470;2023-11-19T16:37:20;12.52;;;3.00;;
38972;SDS011;25333;50.762;4.470;2023-11-19T16:39:46;14.10;;;4.07;;
38972;SDS011;25333;50.762;4.470;2023-11-19T16:42:17;12.83;;;4.07;;
38972;SDS011;25333;50.762;4.470;2023-11-19T16:44:54;13.32;;;3.33;;
38972;SDS011;25333;50.762;4.470;2023-11-19T16:47:35;10.20;;;3.13;;
38972;SDS011;25333;50.762;4.470;2023-11-19T16:53:16;14.10;;;2.58;;
38972;SDS011;25333;50.762;4.470;2023-11-19T16:55:51;11.33;;;3.03;;
38972;SDS011;25333;50.762;4.470;2023-11-19T16:58:42;12.85;;;3.80;;
38972;SDS011;25333;50.762;4.470;2023-11-19T17:01:18;14.27;;;3.67;;
38972;SDS011;25333;50.762;4.470;2023-11-19T17:03:45;13.33;;;4.23;;
38972;SDS011;25333;50.762;4.470;2023-11-19T17:09:21;10.85;;;3.58;;
38972;SDS011;25333;50.762;4.470;2023-11-19T17:11:50;10.05;;;4.03;;
38972;SDS011;25333;50.762;4.470;2023-11-19T17:20:42;16.77;;;3.55;;
38972;SDS011;25333;50.762;4.470;2023-11-19T17:23:08;13.65;;;4.30;;
38972;SDS011;25333;50.762;4.470;2023-11-19T17:25:41;16.73;;;4.20;;
38972;SDS011;25333;50.762;4.470;2023-11-19T17:28:07;17.83;;;4.53;;
38972;SDS011;25333;50.762;4.470;2023-11-19T17:30:36;14.23;;;3.72;;
38972;SDS011;25333;50.762;4.470;2023-11-19T17:36:35;11.73;;;3.88;;
38972;SDS011;25333;50.762;4.470;2023-11-19T17:39:03;15.13;;;3.65;;
38972;SDS011;25333;50.762;4.470;2023-11-19T17:41:29;13.83;;;3.87;;
38972;SDS011;25333;50.762;4.470;2023-11-19T17:43:58;13.23;;;4.55;;
38972;SDS011;25333;50.762;4.470;2023-11-19T17:49:56;12.50;;;3.33;;
38972;SDS011;25333;50.762;4.470;2023-11-19T17:52:40;10.90;;;3.97;;
38972;SDS011;25333;50.762;4.470;2023-11-19T17:58:51;14.95;;;3.13;;
38972;SDS011;25333;50.762;4.470;2023-11-19T18:01:25;12.02;;;2.80;;
38972;SDS011;25333;50.762;4.470;2023-11-19T18:03:52;10.38;;;2.67;;
38972;SDS011;25333;50.762;4.470;2023-11-19T18:06:17;15.02;;;4.03;;
38972;SDS011;25333;50.762;4.470;2023-11-19T18:08:55;15.13;;;3.35;;
38972;SDS011;25333;50.762;4.470;2023-11-19T18:11:27;10.70;;;2.92;;
38972;SDS011;25333;50.762;4.470;2023-11-19T18:13:53;10.02;;;2.40;;
38972;SDS011;25333;50.762;4.470;2023-11-19T18:16:19;10.57;;;3.15;;
38972;SDS011;25333;50.762;4.470;2023-11-19T18:18:45;10.15;;;2.88;;
38972;SDS011;25333;50.762;4.470;2023-11-19T18:21:12;12.35;;;3.40;;
38972;SDS011;25333;50.762;4.470;2023-11-19T18:23:37;11.00;;;2.90;;
38972;SDS011;25333;50.762;4.470;2023-11-19T18:26:12;18.10;;;2.63;;
38972;SDS011;25333;50.762;4.470;2023-11-19T18:28:56;13.20;;;3.40;;
38972;SDS011;25333;50.762;4.470;2023-11-19T18:31:22;11.82;;;2.75;;
38972;SDS011;25333;50.762;4.470;2023-11-19T18:33:48;7.67;;;3.37;;
38972;SDS011;25333;50.762;4.470;2023-11-19T18:36:19;10.18;;;3.10;;
38972;SDS011;25333;50.762;4.470;2023-11-19T18:38:47;12.55;;;3.13;;
38972;SDS011;25333;50.762;4.470;2023-11-19T18:41:22;13.15;;;3.33;;
38972;SDS011;25333;50.762;4.470;2023-11-19T18:43:50;9.13;;;2.53;;
38972;SDS011;25333;50.762;4.470;2023-11-19T18:46:16;8.93;;;2.65;;
38972;SDS011;25333;50.762;4.470;2023-11-19T18:48:42;9.52;;;2.80;;
38972;SDS011;25333;50.762;4.470;2023-11-19T18:51:08;9.73;;;2.80;;
38972;SDS011;25333;50.762;4.470;2023-11-19T18:53:38;11.93;;;2.67;;
38972;SDS011;25333;50.762;4.470;2023-11-19T18:56:07;13.60;;;3.22;;
38972;SDS011;25333;50.762;4.470;2023-11-19T18:58:33;9.60;;;2.20;;
38972;SDS011;25333;50.762;4.470;2023-11-19T19:00:59;6.72;;;2.20;;
38972;SDS011;25333;50.762;4.470;2023-11-19T19:03:28;11.73;;;2.80;;
38972;SDS011;25333;50.762;4.470;2023-11-19T19:08:46;10.75;;;2.97;;
38972;SDS011;25333;50.762;4.470;2023-11-19T19:11:24;10.07;;;2.53;;
38972;SDS011;25333;50.762;4.470;2023-11-19T19:13:54;11.38;;;2.72;;
38972;SDS011;25333;50.762;4.470;2023-11-19T19:19:29;9.23;;;2.35;;
38972;SDS011;25333;50.762;4.470;2023-11-19T19:21:55;10.50;;;2.58;;
38972;SDS011;25333;50.762;4.470;2023-11-19T19:24:22;6.57;;;1.50;;
38972;SDS011;25333;50.762;4.470;2023-11-19T19:26:50;8.98;;;1.65;;
38972;SDS011;25333;50.762;4.470;2023-11-19T19:29:16;5.55;;;2.50;;
38972;SDS011;25333;50.762;4.470;2023-11-19T19:31:51;10.55;;;2.58;;
38972;SDS011;25333;50.762;4.470;2023-11-19T19:34:43;9.60;;;2.80;;
38972;SDS011;25333;50.762;4.470;2023-11-19T19:37:08;9.90;;;3.00;;
38972;SDS011;25333;50.762;4.470;2023-11-19T19:39:35;9.23;;;2.65;;
38972;SDS011;25333;50.762;4.470;2023-11-19T19:42:01;8.63;;;1.90;;
38972;SDS011;25333;50.762;4.470;2023-11-19T19:44:28;9.90;;;2.28;;
38972;SDS011;25333;50.762;4.470;2023-11-19T19:49:58;7.68;;;2.28;;
38972;SDS011;25333;50.762;4.470;2023-11-19T19:52:29;10.88;;;2.47;;
38972;SDS011;25333;50.762;4.470;2023-11-19T19:54:57;10.75;;;2.45;;
38972;SDS011;25333;50.762;4.470;2023-11-19T19:57:23;11.60;;;3.22;;
38972;SDS011;25333;50.762;4.470;2023-11-19T19:59:51;13.10;;;2.85;;
38972;SDS011;25333;50.762;4.470;2023-11-19T20:02:35;7.95;;;2.10;;
38972;SDS011;25333;50.762;4.470;2023-11-19T20:05:01;5.50;;;1.33;;
38972;SDS011;25333;50.762;4.470;2023-11-19T20:07:29;11.38;;;2.08;;
38972;SDS011;25333;50.762;4.470;2023-11-19T20:09:54;13.02;;;2.90;;
38972;SDS011;25333;50.762;4.470;2023-11-19T20:12:20;7.93;;;1.40;;
38972;SDS011;25333;50.762;4.470;2023-11-19T20:14:46;7.68;;;2.10;;
38972;SDS011;25333;50.762;4.470;2023-11-19T20:20:16;8.75;;;2.38;;
38972;SDS011;25333;50.762;4.470;2023-11-19T20:22:42;7.10;;;1.57;;
38972;SDS011;25333;50.762;4.470;2023-11-19T20:25:08;8.68;;;2.25;;
38972;SDS011;25333;50.762;4.470;2023-11-19T20:27:44;8.52;;;2.40;;
38972;SDS011;25333;50.762;4.470;2023-11-19T20:30:19;7.37;;;1.60;;
38972;SDS011;25333;50.762;4.470;2023-11-19T20:32:44;5.30;;;1.40;;
38972;SDS011;25333;50.762;4.470;2023-11-19T20:35:12;8.27;;;1.95;;
38972;SDS011;25333;50.762;4.470;2023-11-19T20:37:38;5.23;;;1.87;;
38972;SDS011;25333;50.762;4.470;2023-11-19T20:40:05;5.85;;;1.80;;
38972;SDS011;25333;50.762;4.470;2023-11-19T20:42:32;5.30;;;1.48;;
38972;SDS011;25333;50.762;4.470;2023-11-19T20:45:06;7.97;;;1.77;;
38972;SDS011;25333;50.762;4.470;2023-11-19T20:47:38;9.47;;;1.93;;
38972;SDS011;25333;50.762;4.470;2023-11-19T20:50:12;5.97;;;1.67;;
38972;SDS011;25333;50.762;4.470;2023-11-19T20:52:47;3.72;;;1.60;;
38972;SDS011;25333;50.762;4.470;2023-11-19T20:55:13;4.93;;;1.58;;
38972;SDS011;25333;50.762;4.470;2023-11-19T20:57:41;5.20;;;1.52;;
38972;SDS011;25333;50.762;4.470;2023-11-19T21:00:07;7.00;;;1.63;;
38972;SDS011;25333;50.762;4.470;2023-11-19T21:02:37;5.47;;;1.83;;
38972;SDS011;25333;50.762;4.470;2023-11-19T21:05:04;4.63;;;0.90;;
38972;SDS011;25333;50.762;4.470;2023-11-19T21:07:31;6.50;;;1.42;;
38972;SDS011;25333;50.762;4.470;2023-11-19T21:10:00;7.70;;;1.48;;
38972;SDS011;25333;50.762;4.470;2023-11-19T21:12:26;10.47;;;2.23;;
38972;SDS011;25333;50.762;4.470;2023-11-19T21:14:51;7.65;;;2.40;;
38972;SDS011;25333;50.762;4.470;2023-11-19T21:17:17;4.97;;;0.97;;
38972;SDS011;25333;50.762;4.470;2023-11-19T21:19:43;6.15;;;1.75;;
38972;SDS011;25333;50.762;4.470;2023-11-19T21:22:10;6.95;;;1.27;;
38972;SDS011;25333;50.762;4.470;2023-11-19T21:24:37;5.63;;;1.00;;
38972;SDS011;25333;50.762;4.470;2023-11-19T21:27:03;7.28;;;1.80;;
38972;SDS011;25333;50.762;4.470;2023-11-19T21:29:29;8.48;;;1.70;;
38972;SDS011;25333;50.762;4.470;2023-11-19T21:31:55;5.95;;;1.25;;
38972;SDS011;25333;50.762;4.470;2023-11-19T21:34:21;7.85;;;2.35;;
38972;SDS011;25333;50.762;4.470;2023-11-19T21:36:48;4.80;;;1.42;;
38972;SDS011;25333;50.762;4.470;2023-11-19T21:39:13;6.20;;;1.58;;
38972;SDS011;25333;50.762;4.470;2023-11-19T21:41:39;8.33;;;1.83;;
38972;SDS011;25333;50.762;4.470;2023-11-19T21:44:05;6.38;;;1.50;;
38972;SDS011;25333;50.762;4.470;2023-11-19T21:46:32;9.80;;;1.90;;
38972;SDS011;25333;50.762;4.470;2023-11-19T21:48:57;8.43;;;2.25;;
38972;SDS011;25333;50.762;4.470;2023-11-19T21:51:23;8.37;;;1.30;;
38972;SDS011;25333;50.762;4.470;2023-11-19T21:53:49;9.35;;;1.83;;
38972;SDS011;25333;50.762;4.470;2023-11-19T21:56:14;13.75;;;2.53;;
38972;SDS011;25333;50.762;4.470;2023-11-19T21:58:41;10.77;;;1.80;;
38972;SDS011;25333;50.762;4.470;2023-11-19T22:01:08;9.98;;;2.30;;
38972;SDS011;25333;50.762;4.470;2023-11-19T22:03:33;9.70;;;1.90;;
38972;SDS011;25333;50.762;4.470;2023-11-19T22:06:01;11.68;;;2.17;;
38972;SDS011;25333;50.762;4.470;2023-11-19T22:08:27;7.55;;;1.83;;
38972;SDS011;25333;50.762;4.470;2023-11-19T22:10:54;6.35;;;1.83;;
38972;SDS011;25333;50.762;4.470;2023-11-19T22:13:20;8.63;;;1.52;;
38972;SDS011;25333;50.762;4.470;2023-11-19T22:15:47;7.60;;;2.90;;
38972;SDS011;25333;50.762;4.470;2023-11-19T22:18:13;8.23;;;1.98;;
38972;SDS011;25333;50.762;4.470;2023-11-19T22:20:39;8.90;;;2.53;;
38972;SDS011;25333;50.762;4.470;2023-11-19T22:23:05;10.38;;;1.92;;
38972;SDS011;25333;50.762;4.470;2023-11-19T22:25:31;5.40;;;1.60;;
38972;SDS011;25333;50.762;4.470;2023-11-19T22:27:56;7.60;;;2.20;;
38972;SDS011;25333;50.762;4.470;2023-11-19T22:30:22;6.45;;;1.33;;
38972;SDS011;25333;50.762;4.470;2023-11-19T22:32:48;11.77;;;2.22;;
38972;SDS011;25333;50.762;4.470;2023-11-19T22:35:14;5.75;;;1.55;;
38972;SDS011;25333;50.762;4.470;2023-11-19T22:37:39;7.95;;;1.90;;